createdAt,value
2023-04-09T00:00:51.909Z,17.15
2023-04-09T00:03:18.176Z,17.13
2023-04-09T00:05:44.600Z,17.13
2023-04-09T00:08:10.812Z,17.11
2023-04-09T00:10:37.040Z,17.12
2023-04-09T00:13:03.241Z,17.10
2023-04-09T00:15:31.576Z,17.10
2023-04-09T00:17:58.717Z,17.08
2023-04-09T00:20:24.989Z,17.07
2023-04-09T00:22:51.338Z,17.07
2023-04-09T00:25:17.652Z,17.06
2023-04-09T00:27:43.875Z,17.05
2023-04-09T00:30:10.139Z,17.03
2023-04-09T00:32:36.428Z,17.03
2023-04-09T00:35:02.624Z,17.02
2023-04-09T00:37:28.833Z,17.01
2023-04-09T00:39:55.299Z,17.00
2023-04-09T00:42:21.491Z,16.99
2023-04-09T00:44:47.776Z,16.99
2023-04-09T00:47:14.134Z,16.97
2023-04-09T00:49:40.641Z,16.96
2023-04-09T00:52:06.984Z,16.96
2023-04-09T00:54:33.425Z,16.94
2023-04-09T00:56:59.837Z,16.93
2023-04-09T00:59:26.251Z,16.94
2023-04-09T01:01:52.582Z,16.92
2023-04-09T01:04:18.964Z,16.92
2023-04-09T01:06:45.440Z,16.92
2023-04-09T01:09:11.838Z,16.90
2023-04-09T01:11:38.278Z,16.89
2023-04-09T01:14:04.719Z,16.89
2023-04-09T01:16:31.331Z,16.88
2023-04-09T01:18:59.733Z,16.87
2023-04-09T01:21:26.530Z,16.86
2023-04-09T01:23:53.129Z,16.86
2023-04-09T01:26:19.556Z,16.85
2023-04-09T01:28:45.963Z,16.85
2023-04-09T01:31:12.443Z,16.84
2023-04-09T01:33:40.099Z,16.83
2023-04-09T01:36:06.776Z,16.82
2023-04-09T01:38:33.460Z,16.83
2023-04-09T01:40:59.900Z,16.82
2023-04-09T01:43:29.450Z,16.81
2023-04-09T01:45:55.880Z,16.81
2023-04-09T01:48:24.802Z,16.82
2023-04-09T01:50:51.388Z,16.80
2023-04-09T01:53:17.957Z,16.80
2023-04-09T01:55:44.996Z,16.81
2023-04-09T01:58:12.662Z,16.79
2023-04-09T02:00:39.224Z,16.78
2023-04-09T02:03:07.690Z,16.79
2023-04-09T02:05:34.188Z,16.78
2023-04-09T02:08:01.954Z,16.78
2023-04-09T02:10:28.311Z,16.78
2023-04-09T02:12:54.799Z,16.77
2023-04-09T02:15:21.193Z,16.77
2023-04-09T02:17:47.769Z,16.72
2023-04-09T02:20:14.238Z,16.77
2023-04-09T02:22:42.121Z,16.77
2023-04-09T02:25:10.947Z,16.75
2023-04-09T02:27:37.622Z,16.75
2023-04-09T02:30:04.051Z,16.76
2023-04-09T02:32:30.462Z,16.74
2023-04-09T02:34:56.940Z,16.75
2023-04-09T02:37:23.292Z,16.74
2023-04-09T02:39:49.907Z,16.73
2023-04-09T02:42:16.448Z,16.73
2023-04-09T02:44:42.879Z,16.73
2023-04-09T02:47:09.204Z,16.71
2023-04-09T02:49:35.811Z,16.72
2023-04-09T02:52:02.222Z,16.70
2023-04-09T02:54:28.571Z,16.71
2023-04-09T02:56:57.505Z,16.70
2023-04-09T02:59:25.022Z,16.70
2023-04-09T03:01:51.542Z,16.69
2023-04-09T03:04:18.681Z,16.69
2023-04-09T03:06:45.403Z,16.69
2023-04-09T03:09:11.882Z,16.69
2023-04-09T03:11:40.363Z,16.69
2023-04-09T03:14:07.023Z,16.68
2023-04-09T03:16:33.592Z,16.68
2023-04-09T03:19:00.179Z,16.66
2023-04-09T03:21:29.184Z,16.68
2023-04-09T03:23:55.497Z,16.67
2023-04-09T03:26:22.035Z,16.67
2023-04-09T03:28:48.502Z,16.66
2023-04-09T03:31:15.375Z,16.66
2023-04-09T03:33:41.927Z,16.66
2023-04-09T03:36:08.318Z,16.65
2023-04-09T03:38:34.672Z,16.65
2023-04-09T03:41:01.049Z,16.64
2023-04-09T03:43:27.459Z,16.64
2023-04-09T03:45:54.185Z,16.64
2023-04-09T03:48:20.691Z,16.63
2023-04-09T03:50:47.168Z,16.63
2023-04-09T03:53:13.700Z,16.62
2023-04-09T03:55:40.100Z,16.62
2023-04-09T03:58:06.760Z,16.62
2023-04-09T04:00:33.323Z,16.61
2023-04-09T04:02:59.660Z,16.60
2023-04-09T04:05:26.079Z,16.61
2023-04-09T04:07:52.298Z,16.60
2023-04-09T04:10:18.478Z,16.60
2023-04-09T04:12:44.739Z,16.60
2023-04-09T04:15:10.939Z,16.59
2023-04-09T04:17:37.327Z,16.59
2023-04-09T04:20:03.546Z,16.58
2023-04-09T04:22:29.751Z,16.58
2023-04-09T04:24:55.949Z,16.58
2023-04-09T04:27:25.173Z,16.57
2023-04-09T04:29:51.470Z,16.56
2023-04-09T04:32:17.758Z,16.56
2023-04-09T04:34:44.227Z,16.56
2023-04-09T04:37:10.599Z,16.57
2023-04-09T04:39:36.979Z,16.56
2023-04-09T04:42:03.451Z,16.56
2023-04-09T04:44:29.866Z,16.57
2023-04-09T04:46:58.630Z,16.57
2023-04-09T04:49:25.392Z,16.58
2023-04-09T04:51:51.803Z,16.58
2023-04-09T04:54:18.152Z,16.58
2023-04-09T04:56:44.516Z,16.58
2023-04-09T04:59:12.824Z,16.59
2023-04-09T05:01:39.316Z,16.59
2023-04-09T05:04:06.971Z,16.60
2023-04-09T05:06:33.738Z,16.59
2023-04-09T05:09:00.211Z,16.62
2023-04-09T05:11:26.771Z,16.62
2023-04-09T05:13:53.220Z,16.63
2023-04-09T05:16:19.592Z,16.63
2023-04-09T05:18:49.212Z,16.63
2023-04-09T05:21:15.662Z,16.64
2023-04-09T05:23:44.452Z,16.65
2023-04-09T05:26:10.863Z,16.66
2023-04-09T05:28:38.596Z,16.67
2023-04-09T05:31:05.302Z,16.67
2023-04-09T05:33:32.890Z,16.68
2023-04-09T05:35:59.472Z,16.68
2023-04-09T05:38:26.054Z,16.70
2023-04-09T05:40:52.529Z,16.71
2023-04-09T05:43:19.051Z,16.72
2023-04-09T05:45:45.516Z,16.72
2023-04-09T05:48:11.954Z,16.73
2023-04-09T05:50:53.490Z,16.73
2023-04-09T05:53:20.806Z,16.76
2023-04-09T05:55:47.540Z,16.68
2023-04-09T05:58:14.234Z,16.78
2023-04-09T06:00:43.194Z,16.79
2023-04-09T06:03:09.708Z,16.79
2023-04-09T06:05:38.372Z,16.82
2023-04-09T06:08:04.860Z,16.82
2023-04-09T06:10:31.536Z,16.84
2023-04-09T06:12:58.142Z,16.86
2023-04-09T06:15:24.621Z,16.88
2023-04-09T06:17:51.448Z,16.91
2023-04-09T06:20:21.175Z,16.93
2023-04-09T06:22:50.796Z,16.97
2023-04-09T06:25:17.495Z,16.97
2023-04-09T06:27:44.000Z,17.00
2023-04-09T06:30:10.529Z,17.03
2023-04-09T06:32:46.864Z,17.05
2023-04-09T06:35:20.065Z,17.08
2023-04-09T06:37:46.564Z,17.10
2023-04-09T06:40:12.937Z,17.12
2023-04-09T06:42:39.362Z,17.14
2023-04-09T06:45:05.923Z,17.16
2023-04-09T06:47:32.279Z,17.20
2023-04-09T06:49:58.949Z,17.24
2023-04-09T06:52:25.471Z,17.28
2023-04-09T06:54:51.870Z,17.30
2023-04-09T06:57:18.461Z,17.33
2023-04-09T06:59:45.008Z,17.36
2023-04-09T07:02:11.513Z,17.40
2023-04-09T07:04:38.328Z,17.42
2023-04-09T07:07:04.830Z,17.44
2023-04-09T07:09:31.254Z,17.46
2023-04-09T07:11:57.881Z,17.49
2023-04-09T07:14:24.237Z,17.54
2023-04-09T07:16:50.662Z,17.58
2023-04-09T07:19:17.544Z,17.62
2023-04-09T07:21:44.137Z,17.65
2023-04-09T07:24:13.607Z,17.69
2023-04-09T07:26:42.338Z,17.74
2023-04-09T07:29:08.798Z,17.77
2023-04-09T07:31:36.226Z,17.80
2023-04-09T07:34:02.653Z,17.86
2023-04-09T07:36:28.982Z,17.91
2023-04-09T07:38:55.485Z,17.93
2023-04-09T07:41:21.912Z,17.93
2023-04-09T07:43:48.381Z,17.96
2023-04-09T07:46:14.840Z,18.04
2023-04-09T07:48:41.276Z,18.10
2023-04-09T07:51:07.910Z,18.12
2023-04-09T07:53:34.264Z,18.17
2023-04-09T07:56:00.544Z,18.20
2023-04-09T07:58:27.141Z,18.31
2023-04-09T08:00:53.522Z,18.61
2023-04-09T08:03:20.206Z,18.57
2023-04-09T08:05:47.101Z,18.51
2023-04-09T08:08:13.504Z,18.53
2023-04-09T08:10:39.830Z,18.54
2023-04-09T08:13:06.230Z,18.53
2023-04-09T08:15:32.718Z,18.54
2023-04-09T08:17:59.152Z,18.61
2023-04-09T08:20:25.670Z,18.68
2023-04-09T08:22:52.319Z,18.70
2023-04-09T08:25:18.811Z,18.70
2023-04-09T08:27:45.184Z,18.74
2023-04-09T08:30:13.650Z,18.83
2023-04-09T08:32:40.237Z,18.89
2023-04-09T08:35:06.663Z,18.86
2023-04-09T08:37:32.994Z,18.89
2023-04-09T08:40:00.717Z,18.92
2023-04-09T08:42:27.173Z,18.92
2023-04-09T08:44:53.654Z,18.93
2023-04-09T08:47:20.052Z,18.95
2023-04-09T08:49:46.654Z,18.98
2023-04-09T08:52:13.111Z,19.02
2023-04-09T08:54:39.546Z,19.06
2023-04-09T08:57:05.897Z,19.09
2023-04-09T08:59:32.332Z,19.16
2023-04-09T09:01:58.995Z,19.16
2023-04-09T09:04:25.884Z,19.22
2023-04-09T09:06:54.720Z,19.40
2023-04-09T09:09:23.087Z,19.95
2023-04-09T09:11:49.536Z,20.50
2023-04-09T09:14:16.067Z,20.47
2023-04-09T09:16:42.815Z,20.14
2023-04-09T09:19:09.277Z,19.95
2023-04-09T09:21:35.880Z,19.85
2023-04-09T09:24:02.293Z,19.82
2023-04-09T09:26:28.709Z,19.84
2023-04-09T09:28:55.425Z,19.87
2023-04-09T09:31:22.236Z,19.88
2023-04-09T09:33:48.710Z,19.83
2023-04-09T09:36:15.327Z,19.96
2023-04-09T09:38:41.733Z,20.04
2023-04-09T09:41:08.140Z,20.08
2023-04-09T09:43:34.537Z,20.11
2023-04-09T09:46:01.159Z,20.11
2023-04-09T09:48:33.518Z,20.06
2023-04-09T09:51:02.296Z,20.03
2023-04-09T09:53:28.611Z,20.00
2023-04-09T09:55:55.008Z,19.99
2023-04-09T09:58:21.731Z,19.99
2023-04-09T10:00:48.077Z,19.98
2023-04-09T10:03:14.866Z,19.91
2023-04-09T10:05:41.328Z,20.04
2023-04-09T10:08:07.698Z,20.03
2023-04-09T10:10:34.102Z,20.02
2023-04-09T10:13:00.461Z,20.01
2023-04-09T10:15:26.964Z,20.03
2023-04-09T10:17:53.389Z,20.06
2023-04-09T10:20:21.149Z,20.10
2023-04-09T10:22:47.522Z,20.14
2023-04-09T10:25:13.904Z,20.21
2023-04-09T10:27:41.820Z,20.29
2023-04-09T10:30:08.307Z,20.29
2023-04-09T10:32:36.150Z,20.27
2023-04-09T10:35:02.689Z,20.23
2023-04-09T10:37:30.524Z,20.23
2023-04-09T10:39:57.143Z,20.22
2023-04-09T10:42:23.962Z,20.20
2023-04-09T10:44:50.562Z,20.20
2023-04-09T10:47:16.962Z,20.21
2023-04-09T10:49:43.693Z,20.20
2023-04-09T10:52:11.554Z,20.21
2023-04-09T10:54:38.939Z,20.15
2023-04-09T10:57:05.632Z,20.24
2023-04-09T10:59:32.191Z,20.27
2023-04-09T11:01:58.610Z,20.27
2023-04-09T11:04:25.518Z,20.26
2023-04-09T11:06:53.933Z,20.25
2023-04-09T11:09:20.323Z,20.25
2023-04-09T11:11:50.122Z,20.25
2023-04-09T11:14:17.919Z,20.25
2023-04-09T11:16:44.487Z,20.24
2023-04-09T11:19:12.351Z,20.25
2023-04-09T11:21:38.742Z,20.27
2023-04-09T11:24:05.054Z,20.30
2023-04-09T11:26:33.331Z,20.31
2023-04-09T11:28:59.753Z,20.31
2023-04-09T11:31:26.254Z,20.31
2023-04-09T11:33:52.707Z,20.30
2023-04-09T11:36:19.405Z,20.31
2023-04-09T11:38:45.834Z,20.32
2023-04-09T11:41:12.202Z,20.33
2023-04-09T11:43:41.589Z,20.33
2023-04-09T11:46:08.018Z,20.34
2023-04-09T11:48:34.474Z,20.36
2023-04-09T11:51:00.966Z,20.37
2023-04-09T11:53:27.413Z,20.38
2023-04-09T11:55:53.938Z,20.39
2023-04-09T11:58:20.567Z,20.40
2023-04-09T12:00:47.205Z,20.42
2023-04-09T12:03:14.028Z,20.43
2023-04-09T12:05:45.022Z,20.42
2023-04-09T12:08:15.193Z,20.42
2023-04-09T12:10:42.123Z,20.39
2023-04-09T12:13:08.594Z,20.39
2023-04-09T12:15:35.052Z,20.40
2023-04-09T12:18:01.632Z,20.40
2023-04-09T12:20:31.239Z,20.39
2023-04-09T12:22:57.554Z,20.38
2023-04-09T12:25:26.944Z,20.40
2023-04-09T12:27:53.425Z,20.40
2023-04-09T12:30:19.898Z,20.41
2023-04-09T12:32:46.163Z,20.41
2023-04-09T12:35:12.449Z,20.40
2023-04-09T12:37:38.688Z,20.39
2023-04-09T12:40:04.893Z,20.38
2023-04-09T12:42:31.368Z,20.37
2023-04-09T12:44:57.699Z,20.37
2023-04-09T12:47:24.396Z,20.37
2023-04-09T12:49:50.673Z,20.38
2023-04-09T12:52:16.887Z,20.39
2023-04-09T12:54:43.382Z,20.39
2023-04-09T12:57:09.881Z,20.39
2023-04-09T12:59:36.078Z,20.41
2023-04-09T13:02:02.425Z,20.42
2023-04-09T13:04:28.897Z,20.43
2023-04-09T13:06:55.270Z,20.43
2023-04-09T13:09:21.647Z,20.43
2023-04-09T13:11:47.913Z,20.44
2023-04-09T13:14:14.253Z,20.45
2023-04-09T13:16:40.643Z,20.47
2023-04-09T13:19:06.886Z,20.47
2023-04-09T13:21:33.752Z,20.46
2023-04-09T13:24:00.102Z,20.46
2023-04-09T13:26:26.313Z,20.49
2023-04-09T13:28:58.136Z,20.52
2023-04-09T13:31:24.613Z,20.51
2023-04-09T13:33:51.337Z,20.51
2023-04-09T13:36:17.755Z,20.52
2023-04-09T13:38:44.558Z,20.52
2023-04-09T13:41:11.009Z,20.52
2023-04-09T13:43:38.608Z,20.53
2023-04-09T13:46:07.900Z,20.54
2023-04-09T13:48:34.571Z,20.58
2023-04-09T13:51:01.062Z,20.60
2023-04-09T13:53:27.681Z,20.63
2023-04-09T13:55:54.129Z,20.63
2023-04-09T13:58:20.630Z,20.64
2023-04-09T14:00:47.012Z,20.64
2023-04-09T14:03:15.420Z,20.63
2023-04-09T14:05:41.851Z,20.62
2023-04-09T14:08:09.186Z,20.64
2023-04-09T14:10:35.671Z,20.67
2023-04-09T14:13:02.065Z,20.65
2023-04-09T14:15:28.551Z,20.65
2023-04-09T14:17:55.076Z,20.65
2023-04-09T14:20:21.468Z,20.65
2023-04-09T14:22:47.870Z,20.67
2023-04-09T14:25:16.018Z,20.66
2023-04-09T14:27:42.541Z,20.68
2023-04-09T14:30:09.026Z,20.68
2023-04-09T14:32:35.444Z,20.68
2023-04-09T14:35:02.307Z,20.68
2023-04-09T14:37:28.999Z,20.73
2023-04-09T14:39:55.614Z,20.73
2023-04-09T14:42:29.398Z,20.73
2023-04-09T14:44:55.991Z,20.73
2023-04-09T14:47:22.414Z,20.72
2023-04-09T14:49:48.927Z,20.73
2023-04-09T14:52:17.760Z,20.73
2023-04-09T14:54:44.202Z,20.73
2023-04-09T14:57:10.768Z,20.74
2023-04-09T14:59:37.145Z,20.71
2023-04-09T15:02:03.642Z,20.72
2023-04-09T15:04:30.307Z,20.74
2023-04-09T15:06:58.442Z,20.73
2023-04-09T15:09:24.997Z,20.73
2023-04-09T15:11:51.711Z,20.73
2023-04-09T15:14:18.278Z,20.73
2023-04-09T15:16:44.757Z,20.73
2023-04-09T15:19:11.192Z,20.74
2023-04-09T15:21:37.850Z,20.73
2023-04-09T15:24:04.323Z,20.73
2023-04-09T15:26:30.804Z,20.72
2023-04-09T15:28:57.160Z,20.75
2023-04-09T15:31:26.737Z,20.75
2023-04-09T15:33:54.444Z,20.74
2023-04-09T15:36:20.968Z,20.73
2023-04-09T15:38:47.358Z,20.73
2023-04-09T15:41:13.894Z,20.73
2023-04-09T15:43:41.661Z,20.74
2023-04-09T15:46:08.612Z,20.73
2023-04-09T15:48:35.131Z,20.74
2023-04-09T15:51:04.641Z,20.74
2023-04-09T15:53:31.197Z,20.74
2023-04-09T15:55:59.131Z,20.74
2023-04-09T15:58:25.986Z,20.74
2023-04-09T16:00:52.368Z,20.73
2023-04-09T16:03:18.603Z,20.73
2023-04-09T16:05:44.810Z,20.72
2023-04-09T16:08:11.021Z,20.72
2023-04-09T16:10:37.353Z,20.70
2023-04-09T16:13:05.540Z,20.70
2023-04-09T16:15:31.871Z,20.69
2023-04-09T16:17:58.302Z,20.69
2023-04-09T16:20:27.063Z,20.69
2023-04-09T16:22:53.500Z,20.69
2023-04-09T16:25:20.058Z,20.66
2023-04-09T16:27:46.453Z,20.66
2023-04-09T16:30:12.849Z,20.64
2023-04-09T16:32:42.624Z,20.62
2023-04-09T16:35:09.051Z,20.62
2023-04-09T16:37:35.685Z,20.60
2023-04-09T16:40:02.015Z,20.60
2023-04-09T16:42:30.785Z,20.59
2023-04-09T16:45:04.110Z,20.59
2023-04-09T16:47:34.867Z,20.57
2023-04-09T16:50:01.406Z,20.56
2023-04-09T16:52:27.848Z,20.55
2023-04-09T16:54:54.224Z,20.53
2023-04-09T16:57:20.761Z,20.52
2023-04-09T16:59:47.593Z,20.50
2023-04-09T17:02:16.466Z,20.49
2023-04-09T17:04:43.133Z,20.48
2023-04-09T17:07:09.903Z,20.45
2023-04-09T17:09:36.495Z,20.44
2023-04-09T17:12:02.988Z,20.41
2023-04-09T17:14:30.428Z,20.40
2023-04-09T17:16:56.928Z,20.38
2023-04-09T17:19:23.299Z,20.36
2023-04-09T17:21:49.706Z,20.34
2023-04-09T17:24:16.338Z,20.32
2023-04-09T17:26:42.644Z,20.30
2023-04-09T17:29:09.154Z,20.29
2023-04-09T17:31:35.571Z,20.25
2023-04-09T17:34:01.827Z,20.24
2023-04-09T17:36:28.216Z,20.22
2023-04-09T17:38:55.972Z,20.20
2023-04-09T17:41:22.415Z,20.17
2023-04-09T17:43:50.327Z,20.14
2023-04-09T17:46:16.766Z,20.11
2023-04-09T17:48:43.168Z,20.08
2023-04-09T17:51:09.547Z,20.08
2023-04-09T17:53:36.314Z,20.04
2023-04-09T17:56:02.995Z,20.03
2023-04-09T17:58:29.519Z,20.00
2023-04-09T18:00:58.553Z,19.98
2023-04-09T18:03:25.290Z,19.96
2023-04-09T18:05:52.057Z,19.94
2023-04-09T18:08:20.431Z,19.91
2023-04-09T18:10:46.938Z,19.89
2023-04-09T18:13:13.494Z,19.86
2023-04-09T18:15:40.065Z,19.85
2023-04-09T18:18:06.699Z,19.81
2023-04-09T18:20:33.146Z,19.80
2023-04-09T18:22:59.609Z,19.77
2023-04-09T18:25:26.041Z,19.75
2023-04-09T18:27:52.447Z,19.74
2023-04-09T18:30:18.960Z,19.71
2023-04-09T18:32:45.384Z,19.69
2023-04-09T18:35:11.789Z,19.66
2023-04-09T18:37:40.352Z,19.63
2023-04-09T18:40:06.761Z,19.62
2023-04-09T18:42:33.303Z,19.60
2023-04-09T18:44:59.931Z,19.57
2023-04-09T18:47:26.549Z,19.55
2023-04-09T18:49:54.082Z,19.53
2023-04-09T18:52:20.762Z,19.51
2023-04-09T18:54:47.338Z,19.47
2023-04-09T18:57:13.946Z,19.45
2023-04-09T18:59:40.396Z,19.44
2023-04-09T19:02:06.909Z,19.42
2023-04-09T19:04:34.786Z,19.39
2023-04-09T19:07:01.345Z,19.36
2023-04-09T19:09:27.974Z,19.34
2023-04-09T19:11:54.404Z,19.32
2023-04-09T19:14:20.876Z,19.30
2023-04-09T19:16:47.378Z,19.28
2023-04-09T19:19:14.754Z,19.25
2023-04-09T19:21:41.150Z,19.23
2023-04-09T19:24:07.880Z,19.21
2023-04-09T19:26:34.358Z,19.19
2023-04-09T19:29:00.972Z,19.16
2023-04-09T19:31:27.532Z,19.15
2023-04-09T19:33:54.024Z,19.13
2023-04-09T19:36:20.472Z,19.10
2023-04-09T19:38:46.953Z,19.08
2023-04-09T19:41:13.445Z,19.06
2023-04-09T19:43:39.908Z,19.04
2023-04-09T19:46:06.480Z,19.02
2023-04-09T19:48:33.061Z,19.00
2023-04-09T19:50:59.522Z,18.99
2023-04-09T19:53:26.036Z,18.96
2023-04-09T19:55:52.579Z,18.94
2023-04-09T19:58:21.003Z,18.92
2023-04-09T20:00:49.736Z,18.91
2023-04-09T20:03:16.276Z,18.89
2023-04-09T20:05:42.874Z,18.87
2023-04-09T20:08:13.511Z,18.86
2023-04-09T20:10:42.002Z,18.83
2023-04-09T20:13:08.288Z,18.81
2023-04-09T20:15:34.901Z,18.79
2023-04-09T20:18:01.332Z,18.77
2023-04-09T20:20:27.628Z,18.77
2023-04-09T20:22:56.118Z,18.74
2023-04-09T20:25:22.898Z,18.72
2023-04-09T20:27:49.471Z,18.70
2023-04-09T20:30:15.703Z,18.69
2023-04-09T20:32:41.949Z,18.67
2023-04-09T20:35:10.625Z,18.65
2023-04-09T20:37:36.858Z,18.63
2023-04-09T20:40:03.070Z,18.62
2023-04-09T20:42:29.401Z,18.60
2023-04-09T20:44:56.056Z,18.60
2023-04-09T20:47:22.303Z,18.57
2023-04-09T20:49:48.470Z,18.54
2023-04-09T20:52:14.711Z,18.53
2023-04-09T20:54:40.916Z,18.51
2023-04-09T20:57:07.115Z,18.50
2023-04-09T20:59:38.142Z,18.48
2023-04-09T21:02:04.873Z,18.46
2023-04-09T21:04:31.353Z,18.45
2023-04-09T21:06:57.879Z,18.43
2023-04-09T21:09:24.072Z,18.43
2023-04-09T21:11:50.651Z,18.41
2023-04-09T21:14:16.921Z,18.39
2023-04-09T21:16:43.166Z,18.38
2023-04-09T21:19:09.364Z,18.37
2023-04-09T21:21:35.686Z,18.35
2023-04-09T21:24:02.103Z,18.34
2023-04-09T21:26:33.717Z,18.33
2023-04-09T21:29:13.138Z,18.31
2023-04-09T21:31:39.533Z,18.30
2023-04-09T21:34:06.097Z,18.29
2023-04-09T21:36:32.525Z,18.28
2023-04-09T21:38:58.924Z,18.27
2023-04-09T21:41:25.367Z,18.25
2023-04-09T21:43:51.720Z,18.23
2023-04-09T21:46:20.223Z,18.23
2023-04-09T21:48:46.625Z,18.21
2023-04-09T21:51:13.034Z,18.20
2023-04-09T21:53:40.260Z,18.20
2023-04-09T21:56:07.860Z,18.19
2023-04-09T21:58:34.460Z,18.17
2023-04-09T22:01:00.884Z,18.16
2023-04-09T22:03:27.483Z,18.15
2023-04-09T22:05:55.486Z,18.14
2023-04-09T22:08:21.989Z,18.13
2023-04-09T22:10:48.437Z,18.12
2023-04-09T22:13:15.095Z,18.11
2023-04-09T22:15:41.623Z,18.09
2023-04-09T22:18:08.087Z,18.09
2023-04-09T22:20:35.691Z,18.08
2023-04-09T22:23:02.243Z,18.06
2023-04-09T22:25:28.610Z,18.06
2023-04-09T22:27:55.105Z,18.05
2023-04-09T22:30:21.821Z,18.05
2023-04-09T22:32:48.214Z,18.04
2023-04-09T22:35:14.658Z,18.02
2023-04-09T22:37:44.090Z,18.01
2023-04-09T22:40:10.656Z,17.99
2023-04-09T22:42:37.121Z,17.98
2023-04-09T22:45:03.729Z,17.96
2023-04-09T22:47:30.265Z,17.95
2023-04-09T22:49:56.754Z,17.94
2023-04-09T22:52:23.206Z,17.93
2023-04-09T22:54:49.722Z,17.92
2023-04-09T22:57:16.138Z,17.91
2023-04-09T22:59:42.558Z,17.89
2023-04-09T23:02:11.449Z,17.89
2023-04-09T23:04:37.946Z,17.87
2023-04-09T23:07:06.058Z,17.86
2023-04-09T23:09:32.484Z,17.85
2023-04-09T23:11:58.936Z,17.85
2023-04-09T23:14:25.361Z,17.84
2023-04-09T23:16:51.769Z,17.83
2023-04-09T23:19:18.148Z,17.82
2023-04-09T23:21:44.915Z,17.80
2023-04-09T23:24:11.277Z,17.80
2023-04-09T23:26:37.725Z,17.78
2023-04-09T23:29:04.067Z,17.78
2023-04-09T23:31:30.488Z,17.77
2023-04-09T23:33:56.818Z,17.77
2023-04-09T23:36:26.410Z,17.74
2023-04-09T23:38:52.773Z,17.74
2023-04-09T23:41:19.231Z,17.74
2023-04-09T23:43:45.669Z,17.73
2023-04-09T23:46:12.551Z,17.71
2023-04-09T23:48:39.038Z,17.71
2023-04-09T23:51:05.558Z,17.70
2023-04-09T23:53:31.948Z,17.69
2023-04-09T23:55:58.354Z,17.68
2023-04-09T23:58:24.723Z,17.67
